CheckWX is a tool to help pilots better visualize weather data.  It is not intended as a substitute for an official pre-flight weather briefing.

04:50:59 UTC

DAUL TAF
Laghouat Airport
Laghouat, Algeria
TAF DAUL 230200Z 2303/2312 36008KT CAVOK

Mar-23@
03:00 UTC

Mar-23 @ 03:00 UTC

Mar-23@
12:00 UTC

Mar-23 @ 12:00 UTC

TAF DAUL 230200Z 2303/2312 36008KT CAVOK
Wind
  • 360° at 8 KTS
Conditions
No significant weather
Cloud Levels
  • No significant clouds